New Harbor, ME (Heathkit)

43° 52' 34"N, 69° 29' 40"W, Elevation 65 ft.
Eastern Time

Hourly observations for the last 72 hours

Date Time Temperature (°F) Humi-
dity

(%)
Wind
(mph)
Pressure Rain (in)
Air Dew 6 Hour 1 Hr 3 Hr 6 Hr Day
Alt
(in)
Sea
Level

(mb)
Max Min
26 06:00 57 53 87 N 1 G 1 29.76 1007.8 0.00
26 05:00 58 54 87 N 1 G 2 29.75 1007.5 0.00
26 04:00 58 54 87 NE 0 G 2 29.74 1007.1 0.00
26 03:00 59 55 85 W 2 G 4 29.74 1007.1 0.00
26 02:00 60 55 66 56 83 NE 1 G 1 29.75 1007.5 0.00
26 01:00 61 55 80 NNE 0 G 1 29.74 1007.1 0.00
26 00:00 61 54 77 WSW 1 G 5 29.76 1007.8 0.00
25 23:00 62 54 75 NW 1 G 3 29.76 1007.8 0.00
25 22:00 65 55 70 NW 4 G 8 29.76 1007.8 0.00
25 21:00 65 55 70 WSW 1 G 6 29.75 1007.5 0.00
25 20:00 66 55 79 61 68 W 4 G 6 29.76 1007.8 0.00
25 19:00 69 56 63 SW 6 G 15 29.74 1007.1 0.00
25 18:00 73 55 53 S 6 G 15 29.72 1006.5 0.00
25 17:00 76 59 55 WSW 3 G 14 29.74 1007.1 0.00
25 16:00 78 58 50 SW 4 G 9 29.75 1007.5 0.00
25 15:00 77 59 53 S 5 G 17 29.76 1007.8 0.00
25 14:00 78 61 80 67 55 WSW 4 G 12 29.76 1007.8 0.00
25 13:00 78 58 51 S 7 G 15 29.77 1008.2 0.00
25 12:00 79 59 51 SW 4 G 11 29.77 1008.2 0.00
25 11:00 78 57 49 WSW 3 G 8 29.77 1008.2 0.00
25 10:00 76 58 53 NNW 3 G 8 29.77 1008.2 0.00
25 09:00 74 59 59 ESE 2 G 7 29.78 1008.5 0.00
25 08:00 67 57 67 53 69 NW 4 G 7 29.77 1008.2 0.00
25 07:00 62 57 85 NW 1 G 4 29.75 1007.5 0.00
25 06:00 58 55 89 NNW 1 G 1 29.73 1006.8 0.00
25 05:00 57 53 88 NNW 0 G 1 29.71 1006.1 0.00
25 04:00 58 54 88 N 1 G 2 29.68 1005.1 0.00
25 03:00 59 55 87 NNW 1 G 2 29.68 1005.1 0.00
25 02:00 60 56 74 56 86 NNW 1 G 1 29.66 1004.4 0.00
25 01:00 61 56 84 NNW 0 G 1 29.64 1003.8 0.00
25 00:00 62 57 84 WNW 1 G 4 29.63 1003.4 0.00
24 23:00 64 59 84 NW 1 G 2 29.61 1002.7 0.00
24 22:00 65 59 82 NNW 1 G 2 29.60 1002.4 0.00
24 21:00 69 62 78 NW 2 G 2 29.56 1001.0 0.00
24 20:00 74 64 82 70 70 NW 0 G 1 29.53 1000.0 0.00
24 19:00 79 65 62 WSW 1 G 2 29.51 999.4 0.00
24 18:00 82 65 56 SW 2 G 6 29.47 998.0 0.00
24 17:00 81 67 63 NNW 3 G 7 29.47 998.0 0.00
24 16:00 81 68 64 NW 4 G 9 29.44 997.0 0.00
24 15:00 77 68 75 S 2 G 6 29.44 997.0 0.00
24 14:00 74 66 78 63 75 WSW 3 G 6 29.42 996.3 0.00
24 13:00 75 65 71 WSW 3 G 9 29.41 996.0 0.00
24 12:00 72 63 74 W 5 G 12 29.41 996.0 0.00
24 11:00 69 64 85 SW 2 G 6 29.39 995.3 0.00
24 10:00 69 64 85 SW 2 G 7 29.37 994.6 0.00
24 09:00 67 64 89 W 3 G 10 29.37 994.6 0.00
24 08:00 64 61 64 58 90 SSW 5 G 15 29.35 993.9 0.00
24 07:00 63 60 90 W 6 G 17 29.36 994.3 0.00
24 06:00 63 60 89 WSW 3 G 14 29.35 993.9 0.00
24 05:00 63 60 89 SW 3 G 7 29.34 993.6 0.00
24 04:00 63 60 89 W 2 G 9 29.36 994.3 0.00
24 03:00 63 59 88 W 2 G 6 29.37 994.6 0.00
24 02:00 64 60 65 55 88 SW 5 G 15 29.40 995.6 0.00
24 01:00 63 59 88 S 3 G 11 29.41 996.0 0.00
24 00:00 63 59 87 SW 3 G 10 29.43 996.6 0.19
23 23:00 64 60 87 S 4 G 10 29.45 997.3 0.19
23 22:00 65 61 87 SSW 8 G 22 29.46 997.7 0.19
23 21:00 64 61 89 S 4 G 8 29.47 998.0 0.19
23 20:00 62 58 68 57 88 E 1 G 2 29.49 998.7 0.19
23 19:00 62 58 86 E 1 G 4 29.51 999.4 0.19
23 18:00 64 59 83 E 2 G 7 29.52 999.7 0.19
23 17:00 67 60 78 SE 1 G 2 29.54 1000.4 0.19
23 16:00 68 62 80 S 3 G 11 29.58 1001.7 0.19
23 15:00 66 60 82 S 2 G 4 29.58 1001.7 0.19
23 14:00 65 59 65 55 81 SSW 2 G 4 29.61 1002.7 0.01 0.19
23 13:00 61 56 83 E 1 G 2 29.64 1003.8 0.19
23 12:00 59 55 88 ENE 2 G 6 29.66 1004.4 0.19
23 11:00 61 57 87 ENE 1 G 4 29.68 1005.1 0.01 0.19
23 10:00 61 57 88 SSE 1 G 2 29.69 1005.5 0.19
23 09:00 60 57 89 ENE 2 G 6 29.69 1005.5 0.01 0.19
23 08:00 60 57 60 51 89 SSE 1 G 3 29.71 1006.1 0.18 0.18 0.18 0.18
23 07:00 57 53 88 ENE 2 G 4 29.70 1005.8 0.00

Data generated by WxSolution Version 1.9.0.6, Build 2017.01.14.